createdAt,value
2018-06-01T00:00:52.318Z,101378.28
2018-06-01T00:03:21.047Z,101376.75
2018-06-01T00:05:49.425Z,101384.36
2018-06-01T00:08:17.801Z,101380.55
2018-06-01T00:10:46.346Z,101382.16
2018-06-01T00:13:14.658Z,101383.12
2018-06-01T00:15:42.966Z,101379.98
2018-06-01T00:18:11.341Z,101385.75
2018-06-01T00:20:39.657Z,101380.41
2018-06-01T00:23:08.016Z,101383.33
2018-06-01T00:25:37.101Z,101371.92
2018-06-01T00:28:05.432Z,101371.95
2018-06-01T00:30:33.758Z,101368.72
2018-06-01T00:33:02.097Z,101367.45
2018-06-01T00:35:30.418Z,101370.97
2018-06-01T00:37:58.834Z,101364.07
2018-06-01T00:40:27.541Z,101372.34
2018-06-01T00:42:55.877Z,101371.92
2018-06-01T00:45:24.217Z,101366.30
2018-06-01T00:47:52.627Z,101365.97
2018-06-01T00:50:20.983Z,101360.72
2018-06-01T00:52:49.412Z,101365.80
2018-06-01T00:55:24.565Z,101362.24
2018-06-01T00:57:52.951Z,101363.33
2018-06-01T01:00:21.347Z,101353.10
2018-06-01T01:02:50.289Z,101351.19
2018-06-01T01:05:18.726Z,101347.48
2018-06-01T01:07:47.114Z,101347.44
2018-06-01T01:10:15.993Z,101343.89
2018-06-01T01:12:44.296Z,101340.00
2018-06-01T01:15:12.632Z,101336.80
2018-06-01T01:17:40.969Z,101343.81
2018-06-01T01:20:09.309Z,101342.53
2018-06-01T01:22:37.677Z,101331.56
2018-06-01T01:25:06.872Z,101334.83
2018-06-01T01:27:35.187Z,101330.19
2018-06-01T01:30:03.553Z,101341.70
2018-06-01T01:32:32.717Z,101339.84
2018-06-01T01:35:01.043Z,101340.27
2018-06-01T01:37:33.240Z,101336.39
2018-06-01T01:40:01.590Z,101338.92
2018-06-01T01:42:29.889Z,101335.44
2018-06-01T01:44:58.493Z,101337.43
2018-06-01T01:47:26.793Z,101325.08
2018-06-01T01:49:55.177Z,101321.17
2018-06-01T01:52:23.780Z,101313.75
2018-06-01T01:54:52.890Z,101314.39
2018-06-01T01:57:21.219Z,101317.71
2018-06-01T01:59:49.572Z,101305.50
2018-06-01T02:02:18.144Z,101314.11
2018-06-01T02:04:46.457Z,101315.31
2018-06-01T02:07:14.852Z,101315.80
2018-06-01T02:09:43.166Z,101318.70
2018-06-01T02:12:11.639Z,101319.39
2018-06-01T02:14:40.767Z,101325.30
2018-06-01T02:17:09.081Z,101324.30
2018-06-01T02:19:37.414Z,101326.28
2018-06-01T02:22:05.830Z,101323.31
2018-06-01T02:24:34.135Z,101321.31
2018-06-01T02:27:02.445Z,101325.30
2018-06-01T02:29:31.674Z,101325.79
2018-06-01T02:31:59.987Z,101334.02
2018-06-01T02:34:28.319Z,101327.00
2018-06-01T02:36:57.129Z,101319.61
2018-06-01T02:39:25.443Z,101325.14
2018-06-01T02:41:53.792Z,101327.27
2018-06-01T02:44:22.163Z,101327.33
2018-06-01T02:46:50.548Z,101336.98
2018-06-01T02:49:18.918Z,101340.69
2018-06-01T02:51:47.398Z,101336.22
2018-06-01T02:54:15.710Z,101333.67
2018-06-01T02:56:44.066Z,101330.73
2018-06-01T02:59:12.408Z,101342.03
2018-06-01T03:01:40.741Z,101347.05
2018-06-01T03:04:09.075Z,101345.63
2018-06-01T03:06:49.149Z,101343.25
2018-06-01T03:09:17.445Z,101338.11
2018-06-01T03:11:46.674Z,101338.08
2018-06-01T03:14:15.202Z,101340.69
2018-06-01T03:16:43.543Z,101336.86
2018-06-01T03:19:11.867Z,101345.87
2018-06-01T03:21:40.440Z,101336.77
2018-06-01T03:24:08.737Z,101339.30
2018-06-01T03:26:37.046Z,101344.71
2018-06-01T03:29:05.586Z,101342.26
2018-06-01T03:31:33.910Z,101333.60
2018-06-01T03:34:02.223Z,101340.85
2018-06-01T03:36:30.559Z,101340.77
2018-06-01T03:38:58.889Z,101331.14
2018-06-01T03:41:27.203Z,101335.39
2018-06-01T03:43:55.610Z,101332.85
2018-06-01T03:46:23.940Z,101334.81
2018-06-01T03:48:52.264Z,101323.89
2018-06-01T03:51:20.633Z,101331.93
2018-06-01T03:53:48.961Z,101326.02
2018-06-01T03:56:17.317Z,101327.81
2018-06-01T03:58:45.940Z,101324.04
2018-06-01T04:01:14.232Z,101333.77
2018-06-01T04:03:42.568Z,101338.94
2018-06-01T04:06:10.917Z,101337.16
2018-06-01T04:08:39.215Z,101333.17
2018-06-01T04:11:07.523Z,101335.16
2018-06-01T04:13:35.979Z,101343.80
2018-06-01T04:16:04.287Z,101341.26
2018-06-01T04:18:32.640Z,101344.67
2018-06-01T04:21:00.953Z,101345.94
2018-06-01T04:23:29.278Z,101353.77
2018-06-01T04:25:57.610Z,101358.58
2018-06-01T04:28:26.109Z,101360.51
2018-06-01T04:30:54.438Z,101363.47
2018-06-01T04:33:22.765Z,101357.50
2018-06-01T04:35:51.897Z,101363.03
2018-06-01T04:38:20.205Z,101370.71
2018-06-01T04:40:48.677Z,101354.63
2018-06-01T04:43:17.068Z,101345.95
2018-06-01T04:45:45.394Z,101349.57
2018-06-01T04:48:13.742Z,101342.08
2018-06-01T04:50:42.273Z,101344.81
2018-06-01T04:53:10.645Z,101346.94
2018-06-01T04:55:38.968Z,101345.63
2018-06-01T04:58:09.681Z,101339.38
2018-06-01T05:00:37.999Z,101334.66
2018-06-01T05:03:06.332Z,101334.38
2018-06-01T05:05:35.202Z,101335.25
2018-06-01T05:08:03.552Z,101348.58
2018-06-01T05:10:31.856Z,101366.17
2018-06-01T05:13:00.651Z,101370.99
2018-06-01T05:15:28.974Z,101361.53
2018-06-01T05:17:57.296Z,101354.31
2018-06-01T05:20:26.595Z,101345.67
2018-06-01T05:22:54.943Z,101344.47
2018-06-01T05:25:23.264Z,101347.47
2018-06-01T05:27:52.727Z,101352.59
2018-06-01T05:30:21.225Z,101348.67
2018-06-01T05:32:49.543Z,101350.15
2018-06-01T05:35:18.496Z,101344.92
2018-06-01T05:37:46.841Z,101345.44
2018-06-01T05:40:15.134Z,101341.61
2018-06-01T05:42:43.492Z,101332.66
2018-06-01T05:45:11.825Z,101333.80
2018-06-01T05:47:40.178Z,101329.16
2018-06-01T05:50:09.277Z,101336.45
2018-06-01T05:52:37.593Z,101335.25
2018-06-01T05:55:05.893Z,101342.02
2018-06-01T05:57:34.250Z,101333.45
2018-06-01T06:00:02.559Z,101325.88
2018-06-01T06:02:30.883Z,101323.28
2018-06-01T06:04:59.552Z,101317.94
2018-06-01T06:07:28.017Z,101313.58
2018-06-01T06:09:56.310Z,101322.34
2018-06-01T06:12:25.434Z,101318.13
2018-06-01T06:14:53.748Z,101325.07
2018-06-01T06:17:22.122Z,101325.30
2018-06-01T06:19:50.920Z,101317.16
2018-06-01T06:22:19.208Z,101315.55
2018-06-01T06:24:47.724Z,101316.09
2018-06-01T06:27:16.859Z,101315.14
2018-06-01T06:29:45.241Z,101314.57
2018-06-01T06:32:13.629Z,101318.30
2018-06-01T06:34:41.977Z,101313.75
2018-06-01T06:37:10.283Z,101307.50
2018-06-01T06:39:38.603Z,101318.58
2018-06-01T06:42:08.049Z,101313.72
2018-06-01T06:44:36.343Z,101306.94
2018-06-01T06:47:04.674Z,101309.13
2018-06-01T06:49:33.001Z,101318.84
2018-06-01T06:52:01.341Z,101318.27
2018-06-01T06:54:29.637Z,101311.14
2018-06-01T06:56:58.537Z,101319.49
2018-06-01T06:59:26.841Z,101309.92
2018-06-01T07:01:55.165Z,101311.92
2018-06-01T07:04:24.273Z,101319.22
2018-06-01T07:06:52.637Z,101317.90
2018-06-01T07:09:20.958Z,101314.38
2018-06-01T07:11:49.338Z,101312.61
2018-06-01T07:14:18.028Z,101313.02
2018-06-01T07:16:46.417Z,101318.13
2018-06-01T07:19:14.771Z,101315.06
2018-06-01T07:21:43.078Z,101318.91
2018-06-01T07:24:11.400Z,101312.77
2018-06-01T07:26:39.778Z,101310.88
2018-06-01T07:29:08.074Z,101319.86
2018-06-01T07:31:36.401Z,101321.16
2018-06-01T07:34:04.733Z,101319.81
2018-06-01T07:36:33.041Z,101316.58
2018-06-01T07:39:01.369Z,101315.68
2018-06-01T07:41:30.417Z,101312.67
2018-06-01T07:43:58.759Z,101308.01
2018-06-01T07:46:27.092Z,101313.37
2018-06-01T07:48:55.521Z,101315.73
2018-06-01T07:51:23.875Z,101315.23
2018-06-01T07:53:52.320Z,101315.48
2018-06-01T07:56:20.713Z,101315.27
2018-06-01T07:58:49.039Z,101320.70
2018-06-01T08:01:17.487Z,101314.61
2018-06-01T08:03:45.949Z,101307.63
2018-06-01T08:06:14.270Z,101313.62
2018-06-01T08:08:42.593Z,101312.10
2018-06-01T08:11:11.467Z,101313.60
2018-06-01T08:13:39.766Z,101308.88
2018-06-01T08:16:08.078Z,101311.79
2018-06-01T08:18:36.663Z,101307.42
2018-06-01T08:21:04.965Z,101307.52
2018-06-01T08:23:33.292Z,101308.13
2018-06-01T08:26:02.684Z,101311.44
2018-06-01T08:28:31.012Z,101306.32
2018-06-01T08:30:59.318Z,101309.55
2018-06-01T08:33:28.178Z,101312.61
2018-06-01T08:35:56.555Z,101313.07
2018-06-01T08:38:24.896Z,101310.66
2018-06-01T08:40:53.246Z,101317.14
2018-06-01T08:43:21.575Z,101319.77
2018-06-01T08:45:49.901Z,101317.54
2018-06-01T08:48:18.327Z,101314.14
2018-06-01T08:50:46.685Z,101311.44
2018-06-01T08:53:15.010Z,101310.38
2018-06-01T08:55:43.613Z,101304.14
2018-06-01T08:58:11.961Z,101301.16
2018-06-01T09:00:40.246Z,101296.16
2018-06-01T09:03:08.595Z,101301.37
2018-06-01T09:05:37.769Z,101299.38
2018-06-01T09:08:06.071Z,101308.80
2018-06-01T09:10:35.182Z,101312.15
2018-06-01T09:13:03.521Z,101316.58
2018-06-01T09:15:31.849Z,101310.39
2018-06-01T09:18:00.359Z,101325.71
2018-06-01T09:20:28.661Z,101319.14
2018-06-01T09:22:56.994Z,101324.20
2018-06-01T09:25:25.376Z,101331.93
2018-06-01T09:27:53.800Z,101322.94
2018-06-01T09:30:22.190Z,101328.42
2018-06-01T09:32:51.189Z,101326.98
2018-06-01T09:35:19.542Z,101327.67
2018-06-01T09:37:47.926Z,101322.48
2018-06-01T09:40:16.482Z,101340.35
2018-06-01T09:42:44.809Z,101342.53
2018-06-01T09:45:13.111Z,101346.44
2018-06-01T09:47:41.462Z,101339.47
2018-06-01T09:50:09.761Z,101338.28
2018-06-01T09:52:38.090Z,101331.69
2018-06-01T09:55:06.508Z,101337.97
2018-06-01T09:57:34.805Z,101331.56
2018-06-01T10:00:03.111Z,101329.55
2018-06-01T10:02:32.849Z,101335.41
2018-06-01T10:05:01.187Z,101329.45
2018-06-01T10:07:29.503Z,101325.34
2018-06-01T10:10:03.524Z,101330.30
2018-06-01T10:12:31.838Z,101336.14
2018-06-01T10:15:00.148Z,101335.27
2018-06-01T10:17:28.809Z,101335.78
2018-06-01T10:19:57.121Z,101336.66
2018-06-01T10:22:25.465Z,101343.77
2018-06-01T10:24:53.882Z,101345.98
2018-06-01T10:27:22.237Z,101344.67
2018-06-01T10:29:50.645Z,101347.72
2018-06-01T10:32:19.057Z,101338.41
2018-06-01T10:34:47.493Z,101350.17
2018-06-01T10:37:15.836Z,101343.09
2018-06-01T10:39:45.173Z,101349.08
2018-06-01T10:42:13.485Z,101350.92
2018-06-01T10:44:41.823Z,101349.53
2018-06-01T10:47:10.542Z,101348.30
2018-06-01T10:49:38.890Z,101348.50
2018-06-01T10:52:07.948Z,101350.70
2018-06-01T10:54:36.659Z,101340.66
2018-06-01T10:57:05.053Z,101342.66
2018-06-01T10:59:33.394Z,101337.67
2018-06-01T11:02:01.905Z,101334.92
2018-06-01T11:04:30.225Z,101335.34
2018-06-01T11:06:58.557Z,101334.48
2018-06-01T11:09:28.147Z,101332.98
2018-06-01T11:11:56.579Z,101332.30
2018-06-01T11:14:24.981Z,101321.54
2018-06-01T11:16:53.730Z,101315.58
2018-06-01T11:19:22.063Z,101315.41
2018-06-01T11:21:50.431Z,101318.21
2018-06-01T11:24:19.513Z,101317.64
2018-06-01T11:26:47.900Z,101323.69
2018-06-01T11:29:16.310Z,101314.16
2018-06-01T11:31:45.248Z,101315.37
2018-06-01T11:34:13.553Z,101307.23
2018-06-01T11:36:41.861Z,101305.71
2018-06-01T11:39:10.262Z,101300.92
2018-06-01T11:41:39.184Z,101293.75
2018-06-01T11:44:07.498Z,101297.11
2018-06-01T11:46:36.428Z,101297.91
2018-06-01T11:49:04.733Z,101283.78
2018-06-01T11:51:33.054Z,101283.67
2018-06-01T11:54:01.964Z,101284.27
2018-06-01T11:56:30.275Z,101288.09
2018-06-01T11:58:58.596Z,101280.78
2018-06-01T12:01:27.221Z,101274.03
2018-06-01T12:03:55.616Z,101283.66
2018-06-01T12:06:23.952Z,101282.13
2018-06-01T12:08:52.907Z,101276.66
2018-06-01T12:11:21.247Z,101276.48
2018-06-01T12:13:49.602Z,101275.28
2018-06-01T12:16:18.073Z,101282.09
2018-06-01T12:18:46.475Z,101279.81
2018-06-01T12:21:14.808Z,101284.22
2018-06-01T12:23:43.368Z,101279.91
2018-06-01T12:26:11.682Z,101276.72
2018-06-01T12:28:39.977Z,101269.20
2018-06-01T12:31:08.311Z,101284.22
2018-06-01T12:33:36.625Z,101274.37
2018-06-01T12:36:04.930Z,101278.09
2018-06-01T12:38:33.902Z,101273.33
2018-06-01T12:41:02.245Z,101279.73
2018-06-01T12:43:30.556Z,101278.25
2018-06-01T12:45:58.928Z,101277.69
2018-06-01T12:48:27.258Z,101272.00
2018-06-01T12:50:55.637Z,101264.37
2018-06-01T12:53:24.108Z,101262.33
2018-06-01T12:55:52.466Z,101259.49
2018-06-01T12:58:20.820Z,101263.89
2018-06-01T13:00:49.265Z,101270.86
2018-06-01T13:03:17.626Z,101262.94
2018-06-01T13:05:46.023Z,101255.01
2018-06-01T13:08:14.360Z,101255.86
2018-06-01T13:10:42.689Z,101259.42
2018-06-01T13:13:12.485Z,101254.94
2018-06-01T13:15:41.166Z,101253.89
2018-06-01T13:18:09.535Z,101248.72
2018-06-01T13:20:37.939Z,101257.77
2018-06-01T13:23:06.212Z,101248.38
2018-06-01T13:25:34.562Z,101249.22
2018-06-01T13:28:02.872Z,101239.00
2018-06-01T13:30:31.209Z,101236.37
2018-06-01T13:32:59.509Z,101242.97
2018-06-01T13:35:27.888Z,101237.67
2018-06-01T13:37:56.167Z,101241.27
2018-06-01T13:40:24.540Z,101245.78
2018-06-01T13:42:52.916Z,101246.63
2018-06-01T13:45:21.736Z,101240.12
2018-06-01T13:47:50.065Z,101237.39
2018-06-01T13:50:18.421Z,101242.70
2018-06-01T13:52:46.777Z,101248.85
2018-06-01T13:55:15.129Z,101246.69
2018-06-01T13:57:43.454Z,101241.48
2018-06-01T14:00:11.873Z,101233.22
2018-06-01T14:02:40.171Z,101226.73
2018-06-01T14:05:08.489Z,101218.97
2018-06-01T14:07:36.816Z,101226.44
2018-06-01T14:10:05.146Z,101222.61
2018-06-01T14:12:33.446Z,101219.78
2018-06-01T14:15:01.972Z,101221.25
2018-06-01T14:17:30.273Z,101221.11
2018-06-01T14:19:58.589Z,101222.55
2018-06-01T14:22:26.969Z,101219.77
2018-06-01T14:24:55.311Z,101225.77
2018-06-01T14:27:23.745Z,101223.38
2018-06-01T14:29:52.175Z,101226.16
2018-06-01T14:32:20.485Z,101219.77
2018-06-01T14:34:48.818Z,101206.19
2018-06-01T14:37:18.021Z,101213.05
2018-06-01T14:39:46.387Z,101204.98
2018-06-01T14:42:14.712Z,101215.08
2018-06-01T14:44:44.403Z,101206.55
2018-06-01T14:47:12.774Z,101209.88
2018-06-01T14:49:41.380Z,101205.05
2018-06-01T14:52:10.253Z,101205.58
2018-06-01T14:54:38.576Z,101201.38
2018-06-01T14:57:06.883Z,101199.02
2018-06-01T14:59:36.022Z,101191.52
2018-06-01T15:02:04.325Z,101183.27
2018-06-01T15:04:32.653Z,101178.59
2018-06-01T15:07:01.042Z,101176.02
2018-06-01T15:09:29.359Z,101171.46
2018-06-01T15:11:57.773Z,101174.81
2018-06-01T15:14:26.124Z,101163.33
2018-06-01T15:16:54.409Z,101169.80
2018-06-01T15:19:22.917Z,101170.97
2018-06-01T15:21:51.575Z,101179.59
2018-06-01T15:24:19.907Z,101176.97
2018-06-01T15:26:48.290Z,101170.94
2018-06-01T15:29:16.924Z,101175.77
2018-06-01T15:31:45.262Z,101177.00
2018-06-01T15:34:13.596Z,101181.52
2018-06-01T15:36:41.937Z,101171.92
2018-06-01T15:39:10.237Z,101184.24
2018-06-01T15:41:38.557Z,101180.86
2018-06-01T15:44:07.687Z,101178.83
2018-06-01T15:46:36.007Z,101172.64
2018-06-01T15:49:04.373Z,101166.73
2018-06-01T15:51:32.665Z,101164.12
2018-06-01T15:54:01.004Z,101167.89
2018-06-01T15:56:29.309Z,101164.38
2018-06-01T15:58:58.546Z,101169.04
2018-06-01T16:01:26.887Z,101162.58
2018-06-01T16:03:55.236Z,101162.83
2018-06-01T16:06:23.888Z,101161.77
2018-06-01T16:08:52.261Z,101160.89
2018-06-01T16:11:20.638Z,101158.06
2018-06-01T16:13:49.634Z,101167.86
2018-06-01T16:16:18.033Z,101157.67
2018-06-01T16:18:46.705Z,101158.37
2018-06-01T16:21:15.073Z,101150.78
2018-06-01T16:23:43.424Z,101136.25
2018-06-01T16:26:11.721Z,101139.56
2018-06-01T16:28:40.123Z,101134.98
2018-06-01T16:31:08.410Z,101129.66
2018-06-01T16:33:36.745Z,101126.23
2018-06-01T16:36:05.116Z,101123.12
2018-06-01T16:38:33.459Z,101127.50
2018-06-01T16:41:01.778Z,101127.99
2018-06-01T16:43:30.261Z,101123.98
2018-06-01T16:45:58.557Z,101124.98
2018-06-01T16:48:26.898Z,101132.11
2018-06-01T16:50:56.250Z,101130.71
2018-06-01T16:53:24.656Z,101131.55
2018-06-01T16:55:53.038Z,101132.66
2018-06-01T16:58:21.420Z,101133.72
2018-06-01T17:00:49.796Z,101132.16
2018-06-01T17:03:18.139Z,101128.37
2018-06-01T17:05:46.621Z,101141.04
2018-06-01T17:08:14.962Z,101129.52
2018-06-01T17:10:43.284Z,101138.42
2018-06-01T17:13:11.652Z,101140.80
2018-06-01T17:15:40.011Z,101148.06
2018-06-01T17:18:08.479Z,101149.84
2018-06-01T17:20:37.198Z,101158.52
2018-06-01T17:23:05.543Z,101166.79
2018-06-01T17:25:33.884Z,101168.58
2018-06-01T17:28:02.222Z,101162.23
2018-06-01T17:30:30.543Z,101162.27
2018-06-01T17:32:58.898Z,101160.78
2018-06-01T17:35:27.269Z,101169.13
2018-06-01T17:37:56.202Z,101166.06
2018-06-01T17:40:24.667Z,101168.03
2018-06-01T17:42:53.141Z,101167.84
2018-06-01T17:45:21.545Z,101163.83
2018-06-01T17:47:49.985Z,101167.95
2018-06-01T17:50:18.707Z,101170.13
2018-06-01T17:52:47.089Z,101171.24
2018-06-01T17:55:15.541Z,101165.81
2018-06-01T17:57:45.222Z,101158.94
2018-06-01T18:00:13.594Z,101158.89
2018-06-01T18:02:41.929Z,101158.58
2018-06-01T18:05:10.736Z,101171.00
2018-06-01T18:07:39.155Z,101172.55
2018-06-01T18:10:07.504Z,101174.36
2018-06-01T18:12:35.872Z,101172.31
2018-06-01T18:15:04.218Z,101181.98
2018-06-01T18:17:32.524Z,101178.17
2018-06-01T18:20:01.301Z,101172.77
2018-06-01T18:22:29.680Z,101180.97
2018-06-01T18:24:57.926Z,101178.61
2018-06-01T18:27:26.381Z,101180.60
2018-06-01T18:29:54.767Z,101174.78
2018-06-01T18:32:23.096Z,101182.64
2018-06-01T18:34:51.545Z,101189.78
2018-06-01T18:37:19.965Z,101187.54
2018-06-01T18:39:48.369Z,101191.59
2018-06-01T18:42:17.138Z,101189.64
2018-06-01T18:44:45.491Z,101195.98
2018-06-01T18:47:14.041Z,101188.65
2018-06-01T18:49:42.431Z,101195.41
2018-06-01T18:52:10.755Z,101195.41
2018-06-01T18:54:39.137Z,101187.80
2018-06-01T18:57:08.253Z,101202.87
2018-06-01T18:59:36.529Z,101198.22
2018-06-01T19:02:04.924Z,101194.51
2018-06-01T19:04:33.269Z,101198.73
2018-06-01T19:07:01.594Z,101195.94
2018-06-01T19:09:29.916Z,101201.19
2018-06-01T19:11:58.657Z,101205.27
2018-06-01T19:14:26.971Z,101204.67
2018-06-01T19:16:55.319Z,101206.95
2018-06-01T19:19:23.833Z,101204.34
2018-06-01T19:21:52.258Z,101199.37
2018-06-01T19:24:20.803Z,101197.07
2018-06-01T19:26:49.865Z,101199.43
2018-06-01T19:29:18.264Z,101206.50
2018-06-01T19:31:46.668Z,101206.45
2018-06-01T19:34:15.118Z,101215.34
2018-06-01T19:36:43.457Z,101215.70
2018-06-01T19:39:11.776Z,101214.88
2018-06-01T19:41:40.161Z,101206.23
2018-06-01T19:44:08.464Z,101211.01
2018-06-01T19:46:36.775Z,101214.02
2018-06-01T19:49:05.092Z,101225.41
2018-06-01T19:51:33.471Z,101228.98
2018-06-01T19:54:01.775Z,101232.28
2018-06-01T19:56:30.722Z,101237.28
2018-06-01T19:58:59.075Z,101236.00
2018-06-01T20:01:27.398Z,101233.94
2018-06-01T20:03:55.840Z,101239.05
2018-06-01T20:06:24.278Z,101242.22
2018-06-01T20:08:52.656Z,101235.92
2018-06-01T20:11:21.840Z,101243.97
2018-06-01T20:13:50.233Z,101246.77
2018-06-01T20:16:18.605Z,101236.84
2018-06-01T20:18:46.985Z,101235.55
2018-06-01T20:21:15.333Z,101238.23
2018-06-01T20:23:43.647Z,101233.31
2018-06-01T20:26:12.012Z,101237.64
2018-06-01T20:28:40.301Z,101232.08
2018-06-01T20:31:08.628Z,101226.92
2018-06-01T20:33:37.200Z,101230.99
2018-06-01T20:36:05.561Z,101229.06
2018-06-01T20:38:33.877Z,101228.14
2018-06-01T20:41:02.198Z,101234.80
2018-06-01T20:43:30.825Z,101230.17
2018-06-01T20:45:59.528Z,101234.92
2018-06-01T20:48:29.902Z,101227.45
2018-06-01T20:50:58.259Z,101235.88
2018-06-01T20:53:26.549Z,101235.01
2018-06-01T20:55:55.007Z,101241.70
2018-06-01T20:58:23.387Z,101233.56
2018-06-01T21:00:52.034Z,101223.09
2018-06-01T21:03:21.976Z,101225.09
2018-06-01T21:05:50.804Z,101220.60
2018-06-01T21:08:19.293Z,101220.55
2018-06-01T21:10:47.865Z,101205.23
2018-06-01T21:13:17.224Z,101214.32
2018-06-01T21:15:45.586Z,101215.94
2018-06-01T21:18:14.719Z,101217.67
2018-06-01T21:20:43.904Z,101215.52
2018-06-01T21:23:12.292Z,101221.41
2018-06-01T21:25:40.633Z,101231.41
2018-06-01T21:28:08.954Z,101225.69
2018-06-01T21:30:37.286Z,101231.20
2018-06-01T21:33:05.618Z,101225.02
2018-06-01T21:35:33.913Z,101225.09
2018-06-01T21:38:02.234Z,101218.98
2018-06-01T21:40:31.580Z,101229.72
2018-06-01T21:42:59.897Z,101230.13
2018-06-01T21:45:28.226Z,101230.09
2018-06-01T21:47:57.061Z,101230.92
2018-06-01T21:50:25.442Z,101235.81
2018-06-01T21:52:53.896Z,101237.67
2018-06-01T21:55:22.250Z,101235.53
2018-06-01T21:57:50.638Z,101244.25
2018-06-01T22:00:19.039Z,101248.95
2018-06-01T22:02:47.387Z,101257.05
2018-06-01T22:05:17.482Z,101250.89
2018-06-01T22:07:45.807Z,101250.47
2018-06-01T22:10:14.160Z,101257.42
2018-06-01T22:12:42.478Z,101270.70
2018-06-01T22:15:10.772Z,101253.48
2018-06-01T22:17:39.671Z,101232.94
2018-06-01T22:20:08.001Z,101233.52
2018-06-01T22:22:36.334Z,101241.92
2018-06-01T22:25:05.460Z,101243.61
2018-06-01T22:27:33.749Z,101236.23
2018-06-01T22:30:02.071Z,101228.33
2018-06-01T22:32:31.154Z,101223.11
2018-06-01T22:34:59.462Z,101217.53
2018-06-01T22:37:27.806Z,101217.84
2018-06-01T22:39:56.169Z,101229.63
2018-06-01T22:42:24.538Z,101228.37
2018-06-01T22:44:52.898Z,101231.84
2018-06-01T22:47:21.257Z,101235.23
2018-06-01T22:49:49.597Z,101247.01
2018-06-01T22:52:18.077Z,101236.65
2018-06-01T22:54:46.618Z,101223.97
2018-06-01T22:57:14.935Z,101225.03
2018-06-01T22:59:44.274Z,101220.05
2018-06-01T23:02:12.606Z,101211.23
2018-06-01T23:04:40.968Z,101219.79
2018-06-01T23:07:09.275Z,101215.45
2018-06-01T23:09:37.713Z,101212.09
2018-06-01T23:12:06.024Z,101206.59
2018-06-01T23:14:34.427Z,101199.36
2018-06-01T23:17:02.698Z,101202.19
2018-06-01T23:19:31.022Z,101197.50
2018-06-01T23:21:59.384Z,101187.19
2018-06-01T23:24:27.737Z,101183.87
2018-06-01T23:26:56.091Z,101184.92
2018-06-01T23:29:24.451Z,101184.45
2018-06-01T23:31:52.829Z,101183.30
2018-06-01T23:34:21.127Z,101186.41
2018-06-01T23:36:49.573Z,101177.88
2018-06-01T23:39:17.967Z,101176.02
2018-06-01T23:41:46.311Z,101173.39
2018-06-01T23:44:14.620Z,101175.59
2018-06-01T23:46:44.155Z,101174.88
2018-06-01T23:49:12.465Z,101173.97
2018-06-01T23:51:40.788Z,101170.94
2018-06-01T23:54:10.034Z,101171.16
2018-06-01T23:56:38.336Z,101174.58
2018-06-01T23:59:06.664Z,101179.53
